sensor_id;sensor_type;location;lat;lon;timestamp;temperature;humidity
17697;DHT22;8967;47.984;7.842;2022-09-02T00:00:59;19.10;97.70
17697;DHT22;8967;47.984;7.842;2022-09-02T00:03:28;19.10;97.90
17697;DHT22;8967;47.984;7.842;2022-09-02T00:05:56;19.10;97.60
17697;DHT22;8967;47.984;7.842;2022-09-02T00:08:24;19.00;97.60
17697;DHT22;8967;47.984;7.842;2022-09-02T00:10:51;19.00;97.70
17697;DHT22;8967;47.984;7.842;2022-09-02T00:13:18;19.00;97.90
17697;DHT22;8967;47.984;7.842;2022-09-02T00:15:46;19.10;97.60
17697;DHT22;8967;47.984;7.842;2022-09-02T00:18:13;19.00;97.40
17697;DHT22;8967;47.984;7.842;2022-09-02T00:20:46;19.00;97.30
17697;DHT22;8967;47.984;7.842;2022-09-02T00:23:14;19.00;97.10
17697;DHT22;8967;47.984;7.842;2022-09-02T00:25:43;19.00;97.00
17697;DHT22;8967;47.984;7.842;2022-09-02T00:28:11;19.00;96.70
17697;DHT22;8967;47.984;7.842;2022-09-02T00:30:41;19.00;96.60
17697;DHT22;8967;47.984;7.842;2022-09-02T00:33:09;19.00;96.30
17697;DHT22;8967;47.984;7.842;2022-09-02T00:35:36;19.00;96.10
17697;DHT22;8967;47.984;7.842;2022-09-02T00:38:06;19.00;96.30
17697;DHT22;8967;47.984;7.842;2022-09-02T00:40:35;19.00;96.40
17697;DHT22;8967;47.984;7.842;2022-09-02T00:43:06;19.00;96.30
17697;DHT22;8967;47.984;7.842;2022-09-02T00:45:33;19.00;96.30
17697;DHT22;8967;47.984;7.842;2022-09-02T00:48:00;18.90;96.30
17697;DHT22;8967;47.984;7.842;2022-09-02T00:50:30;18.90;96.60
17697;DHT22;8967;47.984;7.842;2022-09-02T00:53:05;18.90;97.00
17697;DHT22;8967;47.984;7.842;2022-09-02T00:55:39;18.90;97.20
17697;DHT22;8967;47.984;7.842;2022-09-02T00:58:13;18.80;97.50
17697;DHT22;8967;47.984;7.842;2022-09-02T01:00:43;18.70;97.80
17697;DHT22;8967;47.984;7.842;2022-09-02T01:03:14;18.60;97.90
17697;DHT22;8967;47.984;7.842;2022-09-02T01:05:44;18.60;97.90
17697;DHT22;8967;47.984;7.842;2022-09-02T01:08:12;18.50;98.10
17697;DHT22;8967;47.984;7.842;2022-09-02T01:10:41;18.50;98.10
17697;DHT22;8967;47.984;7.842;2022-09-02T01:13:13;18.40;98.30
17697;DHT22;8967;47.984;7.842;2022-09-02T01:15:47;18.40;98.40
17697;DHT22;8967;47.984;7.842;2022-09-02T01:18:16;18.30;98.30
17697;DHT22;8967;47.984;7.842;2022-09-02T01:20:45;18.20;98.40
17697;DHT22;8967;47.984;7.842;2022-09-02T01:23:14;18.20;98.50
17697;DHT22;8967;47.984;7.842;2022-09-02T01:25:43;18.10;98.80
17697;DHT22;8967;47.984;7.842;2022-09-02T01:28:13;18.10;98.80
17697;DHT22;8967;47.984;7.842;2022-09-02T01:30:44;18.00;98.70
17697;DHT22;8967;47.984;7.842;2022-09-02T01:33:12;18.00;98.90
17697;DHT22;8967;47.984;7.842;2022-09-02T01:35:39;17.90;99.00
17697;DHT22;8967;47.984;7.842;2022-09-02T01:38:06;17.80;99.00
17697;DHT22;8967;47.984;7.842;2022-09-02T01:40:35;17.70;99.10
17697;DHT22;8967;47.984;7.842;2022-09-02T01:43:04;17.70;99.10
17697;DHT22;8967;47.984;7.842;2022-09-02T01:45:32;17.60;99.00
17697;DHT22;8967;47.984;7.842;2022-09-02T01:48:00;17.60;99.10
17697;DHT22;8967;47.984;7.842;2022-09-02T01:50:27;17.50;99.10
17697;DHT22;8967;47.984;7.842;2022-09-02T01:52:57;17.50;99.10
17697;DHT22;8967;47.984;7.842;2022-09-02T01:55:26;17.40;99.10
17697;DHT22;8967;47.984;7.842;2022-09-02T01:57:58;17.40;98.80
17697;DHT22;8967;47.984;7.842;2022-09-02T02:00:25;17.30;98.90
17697;DHT22;8967;47.984;7.842;2022-09-02T02:02:53;17.30;99.00
17697;DHT22;8967;47.984;7.842;2022-09-02T02:05:21;17.20;97.60
17697;DHT22;8967;47.984;7.842;2022-09-02T02:07:50;16.90;99.10
17697;DHT22;8967;47.984;7.842;2022-09-02T02:10:19;17.20;91.50
17697;DHT22;8967;47.984;7.842;2022-09-02T02:12:48;17.20;90.80
17697;DHT22;8967;47.984;7.842;2022-09-02T02:15:20;17.10;90.70
17697;DHT22;8967;47.984;7.842;2022-09-02T02:17:48;17.10;90.80
17697;DHT22;8967;47.984;7.842;2022-09-02T02:20:17;17.00;90.60
17697;DHT22;8967;47.984;7.842;2022-09-02T02:22:45;17.00;90.30
17697;DHT22;8967;47.984;7.842;2022-09-02T02:25:16;16.90;90.30
17697;DHT22;8967;47.984;7.842;2022-09-02T02:27:43;16.90;90.30
17697;DHT22;8967;47.984;7.842;2022-09-02T02:30:12;16.90;90.20
17697;DHT22;8967;47.984;7.842;2022-09-02T02:32:43;16.90;90.20
17697;DHT22;8967;47.984;7.842;2022-09-02T02:35:13;16.90;90.20
17697;DHT22;8967;47.984;7.842;2022-09-02T02:37:40;16.80;90.20
17697;DHT22;8967;47.984;7.842;2022-09-02T02:40:08;16.80;90.30
17697;DHT22;8967;47.984;7.842;2022-09-02T02:42:37;16.70;90.40
17697;DHT22;8967;47.984;7.842;2022-09-02T02:45:05;16.70;90.40
17697;DHT22;8967;47.984;7.842;2022-09-02T02:47:37;16.60;90.50
17697;DHT22;8967;47.984;7.842;2022-09-02T02:50:07;16.60;90.60
17697;DHT22;8967;47.984;7.842;2022-09-02T02:52:35;16.60;90.60
17697;DHT22;8967;47.984;7.842;2022-09-02T02:55:03;16.60;90.70
17697;DHT22;8967;47.984;7.842;2022-09-02T02:57:34;16.60;90.70
17697;DHT22;8967;47.984;7.842;2022-09-02T03:00:07;16.50;90.80
17697;DHT22;8967;47.984;7.842;2022-09-02T03:02:35;16.50;90.90
17697;DHT22;8967;47.984;7.842;2022-09-02T03:05:07;16.50;91.00
17697;DHT22;8967;47.984;7.842;2022-09-02T03:07:35;16.40;91.10
17697;DHT22;8967;47.984;7.842;2022-09-02T03:10:04;16.40;91.30
17697;DHT22;8967;47.984;7.842;2022-09-02T03:12:33;16.40;91.40
17697;DHT22;8967;47.984;7.842;2022-09-02T03:15:00;16.40;91.50
17697;DHT22;8967;47.984;7.842;2022-09-02T03:17:28;16.40;91.50
17697;DHT22;8967;47.984;7.842;2022-09-02T03:19:55;16.40;91.40
17697;DHT22;8967;47.984;7.842;2022-09-02T03:22:26;16.30;91.30
17697;DHT22;8967;47.984;7.842;2022-09-02T03:24:53;16.30;91.50
17697;DHT22;8967;47.984;7.842;2022-09-02T03:27:22;16.30;91.50
17697;DHT22;8967;47.984;7.842;2022-09-02T03:29:49;16.20;91.60
17697;DHT22;8967;47.984;7.842;2022-09-02T03:32:16;16.20;91.80
17697;DHT22;8967;47.984;7.842;2022-09-02T03:34:45;16.20;91.90
17697;DHT22;8967;47.984;7.842;2022-09-02T03:37:12;16.10;92.20
17697;DHT22;8967;47.984;7.842;2022-09-02T03:39:41;16.10;93.00
17697;DHT22;8967;47.984;7.842;2022-09-02T03:42:08;16.10;92.40
17697;DHT22;8967;47.984;7.842;2022-09-02T03:44:36;16.00;92.40
17697;DHT22;8967;47.984;7.842;2022-09-02T03:47:05;16.00;92.60
17697;DHT22;8967;47.984;7.842;2022-09-02T03:49:32;16.00;99.00
17697;DHT22;8967;47.984;7.842;2022-09-02T03:52:02;16.00;92.80
17697;DHT22;8967;47.984;7.842;2022-09-02T03:54:31;15.90;92.80
17697;DHT22;8967;47.984;7.842;2022-09-02T03:56:59;16.90;99.90
17697;DHT22;8967;47.984;7.842;2022-09-02T03:59:27;15.90;93.00
17697;DHT22;8967;47.984;7.842;2022-09-02T04:01:54;15.90;93.00
17697;DHT22;8967;47.984;7.842;2022-09-02T04:04:21;15.90;99.90
17697;DHT22;8967;47.984;7.842;2022-09-02T04:06:50;15.80;93.30
17697;DHT22;8967;47.984;7.842;2022-09-02T04:09:17;15.80;93.30
17697;DHT22;8967;47.984;7.842;2022-09-02T04:11:44;15.80;93.30
17697;DHT22;8967;47.984;7.842;2022-09-02T04:14:13;15.70;99.30
17697;DHT22;8967;47.984;7.842;2022-09-02T04:23:36;15.60;93.80
17697;DHT22;8967;47.984;7.842;2022-09-02T04:26:04;15.50;99.90
17697;DHT22;8967;47.984;7.842;2022-09-02T04:28:33;15.50;99.90
17697;DHT22;8967;47.984;7.842;2022-09-02T04:36:04;15.40;99.90
17697;DHT22;8967;47.984;7.842;2022-09-02T04:38:32;15.40;99.90
17697;DHT22;8967;47.984;7.842;2022-09-02T04:40:59;15.40;99.90
17697;DHT22;8967;47.984;7.842;2022-09-02T04:43:27;15.40;99.90
17697;DHT22;8967;47.984;7.842;2022-09-02T06:40:46;16.00;99.90
17697;DHT22;8967;47.984;7.842;2022-09-02T06:43:13;16.00;99.90
17697;DHT22;8967;47.984;7.842;2022-09-02T06:45:55;16.10;99.90
17697;DHT22;8967;47.984;7.842;2022-09-02T06:48:22;16.10;99.90
17697;DHT22;8967;47.984;7.842;2022-09-02T06:50:50;16.20;99.90
17697;DHT22;8967;47.984;7.842;2022-09-02T06:53:27;16.20;99.90
17697;DHT22;8967;47.984;7.842;2022-09-02T06:55:54;16.30;99.90
17697;DHT22;8967;47.984;7.842;2022-09-02T06:58:21;16.30;99.90
17697;DHT22;8967;47.984;7.842;2022-09-02T07:00:48;16.30;99.90
17697;DHT22;8967;47.984;7.842;2022-09-02T07:03:16;16.40;99.90
17697;DHT22;8967;47.984;7.842;2022-09-02T07:06:04;16.40;99.90
17697;DHT22;8967;47.984;7.842;2022-09-02T07:08:35;16.50;99.90
17697;DHT22;8967;47.984;7.842;2022-09-02T07:11:03;16.60;99.90
17697;DHT22;8967;47.984;7.842;2022-09-02T07:13:30;16.60;99.90
17697;DHT22;8967;47.984;7.842;2022-09-02T07:15:57;16.70;99.90
17697;DHT22;8967;47.984;7.842;2022-09-02T07:18:27;16.80;99.90
17697;DHT22;8967;47.984;7.842;2022-09-02T07:20:54;16.80;99.90
17697;DHT22;8967;47.984;7.842;2022-09-02T07:23:21;16.90;99.90
17697;DHT22;8967;47.984;7.842;2022-09-02T07:25:49;17.00;99.90
17697;DHT22;8967;47.984;7.842;2022-09-02T07:28:18;17.00;99.90
17697;DHT22;8967;47.984;7.842;2022-09-02T07:30:45;17.10;99.90
17697;DHT22;8967;47.984;7.842;2022-09-02T07:33:15;17.20;99.90
17697;DHT22;8967;47.984;7.842;2022-09-02T07:35:45;17.20;99.90
17697;DHT22;8967;47.984;7.842;2022-09-02T07:38:15;17.30;99.90
17697;DHT22;8967;47.984;7.842;2022-09-02T07:40:42;17.30;99.90
17697;DHT22;8967;47.984;7.842;2022-09-02T07:43:11;17.40;99.90
17697;DHT22;8967;47.984;7.842;2022-09-02T07:45:40;17.50;99.90
17697;DHT22;8967;47.984;7.842;2022-09-02T07:48:09;17.50;99.90
17697;DHT22;8967;47.984;7.842;2022-09-02T07:50:37;17.50;99.90
17697;DHT22;8967;47.984;7.842;2022-09-02T07:53:10;17.60;99.90
17697;DHT22;8967;47.984;7.842;2022-09-02T07:55:39;17.70;99.90
17697;DHT22;8967;47.984;7.842;2022-09-02T07:58:06;17.70;99.90
17697;DHT22;8967;47.984;7.842;2022-09-02T08:00:34;17.80;99.90
17697;DHT22;8967;47.984;7.842;2022-09-02T08:03:08;17.80;99.90
17697;DHT22;8967;47.984;7.842;2022-09-02T08:05:41;17.90;99.90
17697;DHT22;8967;47.984;7.842;2022-09-02T08:08:10;17.90;99.90
17697;DHT22;8967;47.984;7.842;2022-09-02T08:10:38;18.00;99.90
17697;DHT22;8967;47.984;7.842;2022-09-02T08:13:08;18.00;99.90
17697;DHT22;8967;47.984;7.842;2022-09-02T08:15:36;18.10;99.90
17697;DHT22;8967;47.984;7.842;2022-09-02T08:18:04;18.20;99.90
17697;DHT22;8967;47.984;7.842;2022-09-02T08:20:31;18.20;99.90
17697;DHT22;8967;47.984;7.842;2022-09-02T08:22:59;18.30;99.90
17697;DHT22;8967;47.984;7.842;2022-09-02T08:25:27;18.40;99.90
17697;DHT22;8967;47.984;7.842;2022-09-02T08:27:54;18.40;99.90
17697;DHT22;8967;47.984;7.842;2022-09-02T08:30:21;18.50;99.90
17697;DHT22;8967;47.984;7.842;2022-09-02T08:32:48;18.60;99.90
17697;DHT22;8967;47.984;7.842;2022-09-02T08:35:15;18.70;99.90
17697;DHT22;8967;47.984;7.842;2022-09-02T08:37:42;18.70;99.90
17697;DHT22;8967;47.984;7.842;2022-09-02T08:40:14;18.80;99.90
17697;DHT22;8967;47.984;7.842;2022-09-02T08:42:45;18.90;99.90
17697;DHT22;8967;47.984;7.842;2022-09-02T08:45:17;18.90;99.90
17697;DHT22;8967;47.984;7.842;2022-09-02T08:47:49;19.00;99.90
17697;DHT22;8967;47.984;7.842;2022-09-02T08:50:18;19.20;99.90
17697;DHT22;8967;47.984;7.842;2022-09-02T08:52:59;19.20;99.90
17697;DHT22;8967;47.984;7.842;2022-09-02T08:55:31;19.30;99.90
17697;DHT22;8967;47.984;7.842;2022-09-02T08:58:01;19.30;99.90
17697;DHT22;8967;47.984;7.842;2022-09-02T09:00:34;19.40;99.90
17697;DHT22;8967;47.984;7.842;2022-09-02T09:03:12;19.50;99.90
17697;DHT22;8967;47.984;7.842;2022-09-02T09:05:45;19.60;99.90
17697;DHT22;8967;47.984;7.842;2022-09-02T09:08:21;19.60;99.90
17697;DHT22;8967;47.984;7.842;2022-09-02T09:10:58;19.70;99.90
17697;DHT22;8967;47.984;7.842;2022-09-02T09:13:44;19.80;99.90
17697;DHT22;8967;47.984;7.842;2022-09-02T09:16:18;19.90;99.90
17697;DHT22;8967;47.984;7.842;2022-09-02T09:18:53;19.90;99.90
17697;DHT22;8967;47.984;7.842;2022-09-02T09:21:22;19.90;99.90
17697;DHT22;8967;47.984;7.842;2022-09-02T09:23:53;20.00;99.90
17697;DHT22;8967;47.984;7.842;2022-09-02T09:26:25;20.10;99.90
17697;DHT22;8967;47.984;7.842;2022-09-02T09:28:54;20.10;99.90
17697;DHT22;8967;47.984;7.842;2022-09-02T09:31:28;20.20;99.90
17697;DHT22;8967;47.984;7.842;2022-09-02T09:33:57;20.20;99.90
17697;DHT22;8967;47.984;7.842;2022-09-02T09:36:43;20.30;99.90
17697;DHT22;8967;47.984;7.842;2022-09-02T09:39:26;20.40;99.90
17697;DHT22;8967;47.984;7.842;2022-09-02T09:41:55;20.40;99.90
17697;DHT22;8967;47.984;7.842;2022-09-02T09:44:44;20.50;99.90
17697;DHT22;8967;47.984;7.842;2022-09-02T09:47:15;20.50;99.90
17697;DHT22;8967;47.984;7.842;2022-09-02T09:49:45;20.50;99.90
17697;DHT22;8967;47.984;7.842;2022-09-02T09:52:22;20.60;99.90
17697;DHT22;8967;47.984;7.842;2022-09-02T09:55:15;20.60;99.90
17697;DHT22;8967;47.984;7.842;2022-09-02T09:57:43;20.70;99.90
17697;DHT22;8967;47.984;7.842;2022-09-02T10:00:21;20.70;99.90
17697;DHT22;8967;47.984;7.842;2022-09-02T10:02:56;20.70;99.90
17697;DHT22;8967;47.984;7.842;2022-09-02T10:05:31;20.80;99.90
17697;DHT22;8967;47.984;7.842;2022-09-02T10:08:00;20.80;99.90
17697;DHT22;8967;47.984;7.842;2022-09-02T10:10:29;20.90;99.90
17697;DHT22;8967;47.984;7.842;2022-09-02T10:13:01;20.90;99.90
17697;DHT22;8967;47.984;7.842;2022-09-02T10:15:49;21.00;99.90
17697;DHT22;8967;47.984;7.842;2022-09-02T10:18:30;21.00;99.90
17697;DHT22;8967;47.984;7.842;2022-09-02T10:21:05;21.00;99.90
17697;DHT22;8967;47.984;7.842;2022-09-02T10:23:43;21.10;99.90
17697;DHT22;8967;47.984;7.842;2022-09-02T10:26:22;21.20;99.90
17697;DHT22;8967;47.984;7.842;2022-09-02T10:31:57;21.30;99.90
17697;DHT22;8967;47.984;7.842;2022-09-02T10:34:32;21.40;99.90
17697;DHT22;8967;47.984;7.842;2022-09-02T10:37:10;21.40;99.90
17697;DHT22;8967;47.984;7.842;2022-09-02T10:40:03;21.50;99.90
17697;DHT22;8967;47.984;7.842;2022-09-02T10:42:43;21.50;99.90
17697;DHT22;8967;47.984;7.842;2022-09-02T10:45:14;21.50;99.90
17697;DHT22;8967;47.984;7.842;2022-09-02T10:47:48;21.50;99.90
17697;DHT22;8967;47.984;7.842;2022-09-02T10:50:20;21.60;99.90
17697;DHT22;8967;47.984;7.842;2022-09-02T10:53:07;21.60;99.90
17697;DHT22;8967;47.984;7.842;2022-09-02T10:55:48;21.60;99.90
17697;DHT22;8967;47.984;7.842;2022-09-02T10:58:21;21.70;99.90
17697;DHT22;8967;47.984;7.842;2022-09-02T11:00:55;21.70;99.90
17697;DHT22;8967;47.984;7.842;2022-09-02T11:03:29;21.80;99.90
17697;DHT22;8967;47.984;7.842;2022-09-02T11:06:03;21.80;99.90
17697;DHT22;8967;47.984;7.842;2022-09-02T11:08:37;21.80;99.90
17697;DHT22;8967;47.984;7.842;2022-09-02T11:11:08;21.90;99.90
17697;DHT22;8967;47.984;7.842;2022-09-02T11:13:41;21.90;99.90
17697;DHT22;8967;47.984;7.842;2022-09-02T11:16:17;21.90;99.90
17697;DHT22;8967;47.984;7.842;2022-09-02T11:18:53;22.00;99.90
17697;DHT22;8967;47.984;7.842;2022-09-02T11:21:36;22.00;99.90
17697;DHT22;8967;47.984;7.842;2022-09-02T11:24:11;22.10;99.90
17697;DHT22;8967;47.984;7.842;2022-09-02T11:26:45;22.10;99.90
17697;DHT22;8967;47.984;7.842;2022-09-02T11:29:17;22.10;99.90
17697;DHT22;8967;47.984;7.842;2022-09-02T11:31:50;22.20;99.90
17697;DHT22;8967;47.984;7.842;2022-09-02T11:34:34;22.20;99.90
17697;DHT22;8967;47.984;7.842;2022-09-02T11:37:05;22.30;99.90
17697;DHT22;8967;47.984;7.842;2022-09-02T11:39:37;22.30;99.90
17697;DHT22;8967;47.984;7.842;2022-09-02T11:42:25;22.30;99.90
17697;DHT22;8967;47.984;7.842;2022-09-02T11:45:15;22.40;99.90
17697;DHT22;8967;47.984;7.842;2022-09-02T11:48:01;22.40;99.90
17697;DHT22;8967;47.984;7.842;2022-09-02T11:50:55;22.40;99.90
17697;DHT22;8967;47.984;7.842;2022-09-02T11:53:29;22.50;99.90
17697;DHT22;8967;47.984;7.842;2022-09-02T11:55:59;22.50;99.90
17697;DHT22;8967;47.984;7.842;2022-09-02T11:58:35;22.50;99.90
17697;DHT22;8967;47.984;7.842;2022-09-02T12:01:21;22.60;99.90
17697;DHT22;8967;47.984;7.842;2022-09-02T12:03:53;22.60;99.90
17697;DHT22;8967;47.984;7.842;2022-09-02T12:06:23;22.60;99.90
17697;DHT22;8967;47.984;7.842;2022-09-02T12:09:09;22.60;99.80
17697;DHT22;8967;47.984;7.842;2022-09-02T12:11:49;22.60;99.50
17697;DHT22;8967;47.984;7.842;2022-09-02T12:17:45;22.70;99.40
17697;DHT22;8967;47.984;7.842;2022-09-02T12:21:02;22.70;99.50
17697;DHT22;8967;47.984;7.842;2022-09-02T12:24:04;22.80;99.50
17697;DHT22;8967;47.984;7.842;2022-09-02T12:29:34;22.80;99.70
17697;DHT22;8967;47.984;7.842;2022-09-02T12:32:01;22.90;99.60
17697;DHT22;8967;47.984;7.842;2022-09-02T12:34:54;22.80;99.40
17697;DHT22;8967;47.984;7.842;2022-09-02T12:37:51;22.90;99.50
17697;DHT22;8967;47.984;7.842;2022-09-02T12:40:29;22.90;99.60
17697;DHT22;8967;47.984;7.842;2022-09-02T12:42:59;22.90;99.50
17697;DHT22;8967;47.984;7.842;2022-09-02T12:45:30;22.90;99.50
17697;DHT22;8967;47.984;7.842;2022-09-02T12:48:00;22.90;99.40
17697;DHT22;8967;47.984;7.842;2022-09-02T12:50:50;22.90;99.60
17697;DHT22;8967;47.984;7.842;2022-09-02T12:53:28;23.00;99.50
17697;DHT22;8967;47.984;7.842;2022-09-02T12:56:01;23.00;99.30
17697;DHT22;8967;47.984;7.842;2022-09-02T12:58:32;23.10;99.50
17697;DHT22;8967;47.984;7.842;2022-09-02T13:01:05;23.10;99.60
17697;DHT22;8967;47.984;7.842;2022-09-02T13:03:56;23.10;99.60
17697;DHT22;8967;47.984;7.842;2022-09-02T13:06:39;23.10;99.60
17697;DHT22;8967;47.984;7.842;2022-09-02T13:09:34;23.20;99.70
17697;DHT22;8967;47.984;7.842;2022-09-02T13:15:28;23.30;99.70
17697;DHT22;8967;47.984;7.842;2022-09-02T13:21:29;23.40;99.60
17697;DHT22;8967;47.984;7.842;2022-09-02T13:27:19;23.40;99.30
17697;DHT22;8967;47.984;7.842;2022-09-02T13:30:15;23.50;99.30
17697;DHT22;8967;47.984;7.842;2022-09-02T13:32:54;23.50;99.20
17697;DHT22;8967;47.984;7.842;2022-09-02T13:35:26;23.50;99.30
17697;DHT22;8967;47.984;7.842;2022-09-02T13:37:54;23.50;99.30
17697;DHT22;8967;47.984;7.842;2022-09-02T13:40:29;23.60;99.40
17697;DHT22;8967;47.984;7.842;2022-09-02T13:42:59;23.60;99.30
17697;DHT22;8967;47.984;7.842;2022-09-02T13:45:27;23.60;99.30
17697;DHT22;8967;47.984;7.842;2022-09-02T13:47:58;23.60;99.20
17697;DHT22;8967;47.984;7.842;2022-09-02T13:50:28;23.60;99.30
17697;DHT22;8967;47.984;7.842;2022-09-02T13:52:57;23.60;99.20
17697;DHT22;8967;47.984;7.842;2022-09-02T13:55:26;23.70;99.20
17697;DHT22;8967;47.984;7.842;2022-09-02T13:57:56;23.70;99.10
17697;DHT22;8967;47.984;7.842;2022-09-02T14:00:30;23.70;99.00
17697;DHT22;8967;47.984;7.842;2022-09-02T14:03:01;23.70;99.10
17697;DHT22;8967;47.984;7.842;2022-09-02T14:05:29;23.80;99.10
17697;DHT22;8967;47.984;7.842;2022-09-02T14:07:59;23.80;98.90
17697;DHT22;8967;47.984;7.842;2022-09-02T14:10:29;23.80;98.80
17697;DHT22;8967;47.984;7.842;2022-09-02T14:13:00;23.80;98.90
17697;DHT22;8967;47.984;7.842;2022-09-02T14:15:30;23.80;98.80
17697;DHT22;8967;47.984;7.842;2022-09-02T14:18:12;23.80;98.80
17697;DHT22;8967;47.984;7.842;2022-09-02T14:20:55;23.90;98.80
17697;DHT22;8967;47.984;7.842;2022-09-02T14:23:23;23.90;98.80
17697;DHT22;8967;47.984;7.842;2022-09-02T14:25:52;23.90;98.80
17697;DHT22;8967;47.984;7.842;2022-09-02T14:28:22;24.00;98.90
17697;DHT22;8967;47.984;7.842;2022-09-02T14:30:58;24.00;98.90
17697;DHT22;8967;47.984;7.842;2022-09-02T14:33:37;24.00;99.00
17697;DHT22;8967;47.984;7.842;2022-09-02T14:36:05;24.00;99.10
17697;DHT22;8967;47.984;7.842;2022-09-02T14:38:35;24.00;99.20
17697;DHT22;8967;47.984;7.842;2022-09-02T14:41:04;24.00;99.20
17697;DHT22;8967;47.984;7.842;2022-09-02T14:43:41;24.10;99.10
17697;DHT22;8967;47.984;7.842;2022-09-02T14:46:16;24.10;99.10
17697;DHT22;8967;47.984;7.842;2022-09-02T14:48:53;24.20;99.00
17697;DHT22;8967;47.984;7.842;2022-09-02T14:51:29;24.20;99.00
17697;DHT22;8967;47.984;7.842;2022-09-02T14:53:59;24.20;99.10
17697;DHT22;8967;47.984;7.842;2022-09-02T14:56:49;24.30;99.30
17697;DHT22;8967;47.984;7.842;2022-09-02T14:59:18;24.30;99.40
17697;DHT22;8967;47.984;7.842;2022-09-02T15:01:47;24.30;99.60
17697;DHT22;8967;47.984;7.842;2022-09-02T15:04:17;24.30;99.70
17697;DHT22;8967;47.984;7.842;2022-09-02T15:06:44;24.30;99.90
17697;DHT22;8967;47.984;7.842;2022-09-02T15:09:12;24.30;99.90
17697;DHT22;8967;47.984;7.842;2022-09-02T15:11:41;24.30;99.90
17697;DHT22;8967;47.984;7.842;2022-09-02T15:14:09;24.30;99.90
17697;DHT22;8967;47.984;7.842;2022-09-02T15:16:37;24.30;99.90
17697;DHT22;8967;47.984;7.842;2022-09-02T15:19:04;24.30;99.90
17697;DHT22;8967;47.984;7.842;2022-09-02T15:21:35;24.30;99.90
17697;DHT22;8967;47.984;7.842;2022-09-02T15:24:02;24.20;99.90
17697;DHT22;8967;47.984;7.842;2022-09-02T15:26:29;24.20;99.90
17697;DHT22;8967;47.984;7.842;2022-09-02T15:28:56;24.20;99.90
17697;DHT22;8967;47.984;7.842;2022-09-02T15:31:23;24.20;99.90
17697;DHT22;8967;47.984;7.842;2022-09-02T15:33:51;24.20;99.90
17697;DHT22;8967;47.984;7.842;2022-09-02T15:36:18;24.20;99.90
17697;DHT22;8967;47.984;7.842;2022-09-02T15:38:47;24.10;99.90
17697;DHT22;8967;47.984;7.842;2022-09-02T15:41:17;24.10;99.90
17697;DHT22;8967;47.984;7.842;2022-09-02T15:43:45;24.10;99.90
17697;DHT22;8967;47.984;7.842;2022-09-02T15:46:18;24.10;99.90
17697;DHT22;8967;47.984;7.842;2022-09-02T15:48:46;24.00;99.90
17697;DHT22;8967;47.984;7.842;2022-09-02T15:51:17;24.00;99.70
17697;DHT22;8967;47.984;7.842;2022-09-02T15:53:53;24.00;99.60
17697;DHT22;8967;47.984;7.842;2022-09-02T15:56:21;24.00;99.60
17697;DHT22;8967;47.984;7.842;2022-09-02T15:58:53;23.90;99.60
17697;DHT22;8967;47.984;7.842;2022-09-02T16:01:23;23.90;99.70
17697;DHT22;8967;47.984;7.842;2022-09-02T16:03:50;23.90;99.50
17697;DHT22;8967;47.984;7.842;2022-09-02T16:06:17;23.90;99.20
17697;DHT22;8967;47.984;7.842;2022-09-02T16:08:44;23.80;98.70
17697;DHT22;8967;47.984;7.842;2022-09-02T16:11:15;23.80;98.20
17697;DHT22;8967;47.984;7.842;2022-09-02T16:13:42;23.70;97.50
17697;DHT22;8967;47.984;7.842;2022-09-02T16:16:11;23.60;97.20
17697;DHT22;8967;47.984;7.842;2022-09-02T16:18:39;23.60;97.10
17697;DHT22;8967;47.984;7.842;2022-09-02T16:21:08;23.60;97.20
17697;DHT22;8967;47.984;7.842;2022-09-02T16:23:36;23.50;97.00
17697;DHT22;8967;47.984;7.842;2022-09-02T16:26:21;23.40;97.30
17697;DHT22;8967;47.984;7.842;2022-09-02T16:28:50;23.40;97.10
17697;DHT22;8967;47.984;7.842;2022-09-02T16:31:19;23.30;97.20
17697;DHT22;8967;47.984;7.842;2022-09-02T16:33:50;23.30;97.30
17697;DHT22;8967;47.984;7.842;2022-09-02T16:36:18;23.20;97.20
17697;DHT22;8967;47.984;7.842;2022-09-02T16:38:45;23.20;97.40
17697;DHT22;8967;47.984;7.842;2022-09-02T16:41:22;23.10;97.50
17697;DHT22;8967;47.984;7.842;2022-09-02T16:43:50;23.10;97.70
17697;DHT22;8967;47.984;7.842;2022-09-02T16:46:17;23.00;97.80
17697;DHT22;8967;47.984;7.842;2022-09-02T16:48:44;23.00;98.00
17697;DHT22;8967;47.984;7.842;2022-09-02T16:51:11;22.90;98.10
17697;DHT22;8967;47.984;7.842;2022-09-02T16:53:39;22.90;98.10
17697;DHT22;8967;47.984;7.842;2022-09-02T16:56:11;22.90;98.30
17697;DHT22;8967;47.984;7.842;2022-09-02T16:58:39;22.80;98.20
17697;DHT22;8967;47.984;7.842;2022-09-02T17:01:12;22.70;98.20
17697;DHT22;8967;47.984;7.842;2022-09-02T17:03:41;22.70;98.10
17697;DHT22;8967;47.984;7.842;2022-09-02T17:06:09;22.60;98.00
17697;DHT22;8967;47.984;7.842;2022-09-02T17:08:38;22.60;98.00
17697;DHT22;8967;47.984;7.842;2022-09-02T17:11:14;22.60;98.00
17697;DHT22;8967;47.984;7.842;2022-09-02T17:13:45;22.60;98.00
17697;DHT22;8967;47.984;7.842;2022-09-02T17:16:12;22.50;98.00
17697;DHT22;8967;47.984;7.842;2022-09-02T17:18:39;22.50;98.00
17697;DHT22;8967;47.984;7.842;2022-09-02T17:21:16;22.50;98.20
17697;DHT22;8967;47.984;7.842;2022-09-02T17:23:44;22.50;98.30
17697;DHT22;8967;47.984;7.842;2022-09-02T17:26:11;22.50;98.50
17697;DHT22;8967;47.984;7.842;2022-09-02T17:28:43;22.40;99.00
17697;DHT22;8967;47.984;7.842;2022-09-02T17:31:16;22.40;99.50
17697;DHT22;8967;47.984;7.842;2022-09-02T17:33:44;22.40;99.90
17697;DHT22;8967;47.984;7.842;2022-09-02T17:36:11;22.30;99.90
17697;DHT22;8967;47.984;7.842;2022-09-02T17:38:38;22.30;99.90
17697;DHT22;8967;47.984;7.842;2022-09-02T17:41:05;22.20;99.90
17697;DHT22;8967;47.984;7.842;2022-09-02T17:43:51;22.10;99.90
17697;DHT22;8967;47.984;7.842;2022-09-02T17:46:19;22.00;99.90
17697;DHT22;8967;47.984;7.842;2022-09-02T17:48:46;22.00;99.90
17697;DHT22;8967;47.984;7.842;2022-09-02T17:51:14;21.90;99.90
17697;DHT22;8967;47.984;7.842;2022-09-02T17:53:45;21.90;99.90
17697;DHT22;8967;47.984;7.842;2022-09-02T17:56:37;21.80;99.90
17697;DHT22;8967;47.984;7.842;2022-09-02T17:59:19;21.80;99.90
17697;DHT22;8967;47.984;7.842;2022-09-02T18:01:57;21.70;99.90
17697;DHT22;8967;47.984;7.842;2022-09-02T18:04:37;21.70;99.90
17697;DHT22;8967;47.984;7.842;2022-09-02T18:07:18;21.70;99.90
17697;DHT22;8967;47.984;7.842;2022-09-02T18:09:48;21.60;99.90
17697;DHT22;8967;47.984;7.842;2022-09-02T18:12:17;21.60;99.90
17697;DHT22;8967;47.984;7.842;2022-09-02T18:14:47;21.50;99.90
17697;DHT22;8967;47.984;7.842;2022-09-02T18:17:21;21.50;99.90
17697;DHT22;8967;47.984;7.842;2022-09-02T18:19:55;21.40;99.90
17697;DHT22;8967;47.984;7.842;2022-09-02T18:25:32;21.30;99.90
17697;DHT22;8967;47.984;7.842;2022-09-02T18:28:11;21.30;99.90
17697;DHT22;8967;47.984;7.842;2022-09-02T18:30:46;21.20;99.90
17697;DHT22;8967;47.984;7.842;2022-09-02T18:33:23;21.20;99.90
17697;DHT22;8967;47.984;7.842;2022-09-02T18:36:05;21.10;99.90
17697;DHT22;8967;47.984;7.842;2022-09-02T18:38:40;21.10;99.90
17697;DHT22;8967;47.984;7.842;2022-09-02T18:41:19;21.00;99.90
17697;DHT22;8967;47.984;7.842;2022-09-02T18:44:02;21.00;99.90